Time;durP1;ratioP1;P1;durP2;ratioP2;P2;SDS_P1;SDS_P2;PMS_P1;PMS_P2;Temp;Humidity;BMP_temperature;BMP_pressure;BME280_temperature;BME280_humidity;BME280_pressure;Samples;Min_cycle;Max_cycle;Signal;HPM_P1;HPM_P2
2023/12/10 00:00:58;;;;;;;34.80;4.10;;;9.30;99.90;;;;;;5031027;28;20120;-53
2023/12/10 00:03:24;;;;;;;24.75;4.10;;;9.30;99.90;;;;;;5030865;28;20053;-50
2023/12/10 00:05:50;;;;;;;22.70;3.15;;;9.30;99.90;;;;;;5031029;28;20127;-50
2023/12/10 00:08:16;;;;;;;24.75;3.72;;;9.40;99.90;;;;;;5030986;28;20117;-51
2023/12/10 00:10:42;;;;;;;26.58;3.90;;;9.30;99.90;;;;;;5031003;28;20037;-49
2023/12/10 00:13:09;;;;;;;30.20;3.85;;;9.40;99.90;;;;;;5028524;28;20037;-50
2023/12/10 00:15:37;;;;;;;36.58;4.75;;;9.20;99.90;;;;;;5030200;28;20041;-49
2023/12/10 00:18:03;;;;;;;30.05;3.92;;;9.40;99.90;;;;;;5030321;28;20049;-51
2023/12/10 00:20:29;;;;;;;30.25;4.30;;;9.40;99.90;;;;;;5030690;28;20045;-52
2023/12/10 00:22:55;;;;;;;30.85;6.90;;;9.40;99.90;;;;;;5029104;28;20128;-49
2023/12/10 00:25:20;;;;;;;21.83;4.43;;;9.40;99.90;;;;;;5030862;28;20052;-49
2023/12/10 00:27:46;;;;;;;28.80;3.58;;;9.60;99.90;;;;;;5032419;28;20033;-49
2023/12/10 00:30:13;;;;;;;23.42;3.78;;;9.50;99.90;;;;;;5016864;28;20045;-50
2023/12/10 00:32:39;;;;;;;21.38;3.70;;;9.40;99.90;;;;;;5034746;28;20076;-47
2023/12/10 00:35:06;;;;;;;22.00;3.03;;;9.40;99.90;;;;;;5034478;28;20041;-50
2023/12/10 00:37:32;;;;;;;25.95;2.97;;;9.20;99.90;;;;;;5034297;28;20041;-51
2023/12/10 00:39:59;;;;;;;25.35;3.10;;;9.20;99.90;;;;;;5034583;28;20056;-47
2023/12/10 00:42:25;;;;;;;20.60;3.70;;;9.20;99.90;;;;;;5034430;28;20228;-51
2023/12/10 00:44:51;;;;;;;26.67;3.22;;;9.00;99.90;;;;;;5032043;28;20042;-51
2023/12/10 00:47:16;;;;;;;18.42;3.15;;;9.20;99.90;;;;;;5034661;28;20045;-50
2023/12/10 00:49:43;;;;;;;24.50;3.13;;;9.00;99.90;;;;;;5034494;28;20385;-51
2023/12/10 00:52:08;;;;;;;23.13;3.13;;;9.20;99.90;;;;;;5034554;28;20044;-50
2023/12/10 00:54:34;;;;;;;20.33;3.13;;;9.00;99.90;;;;;;5034100;28;20795;-52
2023/12/10 00:57:00;;;;;;;21.92;3.03;;;8.90;99.90;;;;;;5033796;28;20485;-50
2023/12/10 00:59:26;;;;;;;21.55;2.83;;;9.00;99.90;;;;;;5033868;28;20052;-49
2023/12/10 01:01:52;;;;;;;22.00;3.33;;;9.10;99.90;;;;;;5034100;28;20059;-49
2023/12/10 01:04:18;;;;;;;19.17;2.60;;;8.80;99.90;;;;;;5034188;28;20089;-47
2023/12/10 01:06:45;;;;;;;20.35;3.03;;;9.10;99.90;;;;;;5033875;28;20505;-48
2023/12/10 01:09:11;;;;;;;24.48;2.90;;;8.80;99.90;;;;;;5034235;28;20073;-51
2023/12/10 01:11:37;;;;;;;23.85;3.83;;;8.70;99.90;;;;;;5034134;28;20061;-51
2023/12/10 01:14:03;;;;;;;23.92;3.47;;;8.80;99.90;;;;;;5033711;28;20040;-52
2023/12/10 01:16:29;;;;;;;22.10;2.83;;;8.70;99.90;;;;;;5032166;28;20064;-48
2023/12/10 01:18:55;;;;;;;32.03;4.63;;;8.70;99.90;;;;;;5033367;28;20116;-51
2023/12/10 01:21:21;;;;;;;28.48;3.72;;;9.10;99.90;;;;;;5032216;28;20049;-50
2023/12/10 01:23:49;;;;;;;22.33;2.95;;;9.00;99.90;;;;;;5033220;28;20124;-48
2023/12/10 01:26:15;;;;;;;30.77;3.88;;;8.70;99.90;;;;;;5033724;28;20037;-51
2023/12/10 01:28:41;;;;;;;29.67;3.30;;;9.10;99.90;;;;;;5032674;28;20036;-51
2023/12/10 01:31:07;;;;;;;23.92;3.42;;;8.90;99.90;;;;;;5033550;28;20061;-49
2023/12/10 01:33:32;;;;;;;23.05;3.85;;;8.60;99.90;;;;;;5033020;28;20128;-51
2023/12/10 01:35:58;;;;;;;18.63;2.75;;;8.80;99.90;;;;;;5032041;28;20511;-50
2023/12/10 01:38:23;;;;;;;30.95;3.80;;;9.00;99.90;;;;;;5030865;28;20081;-52
2023/12/10 01:40:50;;;;;;;31.08;4.40;;;8.90;99.90;;;;;;5033604;28;20099;-52
2023/12/10 01:43:18;;;;;;;24.85;3.53;;;8.60;99.90;;;;;;5032619;28;20041;-53
2023/12/10 01:45:50;;;;;;;31.13;4.40;;;8.60;99.90;;;;;;5033269;28;20037;-52
2023/12/10 01:48:20;;;;;;;18.25;2.83;;;8.70;99.90;;;;;;5033182;28;20426;-49
2023/12/10 01:50:46;;;;;;;31.45;4.15;;;8.90;99.90;;;;;;5031681;28;20048;-50
2023/12/10 01:53:13;;;;;;;25.48;4.00;;;8.60;99.90;;;;;;5033022;28;20037;-50
2023/12/10 01:55:41;;;;;;;27.45;3.33;;;8.60;99.90;;;;;;5032338;28;20481;-51
2023/12/10 01:58:07;;;;;;;31.85;4.15;;;9.00;99.90;;;;;;5033294;28;20366;-53
2023/12/10 02:00:33;;;;;;;27.73;4.07;;;8.70;99.90;;;;;;5032716;28;20033;-51
2023/12/10 02:03:02;;;;;;;34.00;4.45;;;9.10;99.90;;;;;;5033032;28;20033;-52
2023/12/10 02:05:29;;;;;;;25.77;4.55;;;8.90;99.90;;;;;;5032075;28;20099;-51
2023/12/10 02:07:54;;;;;;;29.30;3.53;;;8.60;99.90;;;;;;5032954;28;20030;-50
2023/12/10 02:10:20;;;;;;;27.33;4.07;;;9.10;99.90;;;;;;5031410;28;20044;-52
2023/12/10 02:12:48;;;;;;;27.98;4.05;;;9.10;99.90;;;;;;5032665;28;20401;-54
2023/12/10 02:15:17;;;;;;;38.60;4.05;;;9.10;99.90;;;;;;5029951;28;20038;-50
2023/12/10 02:17:47;;;;;;;31.73;4.20;;;8.90;99.90;;;;;;5029734;28;20057;-49
2023/12/10 02:20:13;;;;;;;36.97;4.35;;;8.80;99.90;;;;;;5032685;28;20049;-47
2023/12/10 02:22:43;;;;;;;29.63;3.53;;;8.70;99.90;;;;;;5030909;28;20107;-50
2023/12/10 02:25:10;;;;;;;30.85;3.92;;;8.80;99.90;;;;;;5032476;28;20029;-50
2023/12/10 02:27:36;;;;;;;38.55;4.25;;;8.60;99.90;;;;;;5032492;28;20048;-48
2023/12/10 02:30:02;;;;;;;32.78;4.55;;;8.60;99.90;;;;;;5032685;28;20033;-50
2023/12/10 02:32:28;;;;;;;30.90;3.90;;;9.10;99.90;;;;;;5031379;28;20485;-46
2023/12/10 02:34:54;;;;;;;36.45;5.22;;;8.60;99.90;;;;;;5030901;28;20146;-50
2023/12/10 02:37:19;;;;;;;35.15;3.97;;;8.60;99.90;;;;;;5032019;28;20041;-49
2023/12/10 02:39:45;;;;;;;28.52;4.35;;;8.50;99.90;;;;;;5032518;28;20064;-50
2023/12/10 02:42:11;;;;;;;19.30;3.47;;;8.50;99.90;;;;;;5032169;28;20048;-50
2023/12/10 02:44:36;;;;;;;31.60;4.20;;;9.00;99.90;;;;;;5029633;28;20059;-52
2023/12/10 02:47:02;;;;;;;23.42;3.45;;;8.50;99.90;;;;;;5032472;28;20051;-50
2023/12/10 02:49:28;;;;;;;37.50;3.63;;;8.60;99.90;;;;;;5031547;28;20040;-52
2023/12/10 02:51:54;;;;;;;29.88;3.90;;;8.50;99.90;;;;;;5032368;28;20029;-51
2023/12/10 02:54:19;;;;;;;36.47;4.38;;;8.60;99.90;;;;;;5031970;28;20123;-52
2023/12/10 02:56:45;;;;;;;28.88;3.42;;;9.00;99.90;;;;;;5030638;28;20160;-53
2023/12/10 02:59:11;;;;;;;25.63;4.03;;;8.90;99.90;;;;;;5031881;28;20469;-52
2023/12/10 03:01:36;;;;;;;35.88;4.25;;;8.40;99.90;;;;;;5031588;28;20048;-51
2023/12/10 03:04:02;;;;;;;38.58;4.50;;;8.40;99.90;;;;;;5030770;28;20539;-49
2023/12/10 03:06:28;;;;;;;26.92;3.97;;;9.00;99.90;;;;;;5032042;28;20124;-53
2023/12/10 03:08:54;;;;;;;28.83;3.88;;;8.60;99.90;;;;;;5031980;28;20456;-51
2023/12/10 03:11:19;;;;;;;29.20;4.97;;;8.40;99.90;;;;;;5029838;28;20100;-53
2023/12/10 03:13:45;;;;;;;27.17;3.80;;;9.00;99.90;;;;;;5031090;28;20041;-50
2023/12/10 03:16:11;;;;;;;29.15;3.50;;;8.40;99.90;;;;;;5031491;28;20062;-51
2023/12/10 03:18:36;;;;;;;23.33;2.80;;;8.80;99.90;;;;;;5031884;28;20053;-50
2023/12/10 03:21:02;;;;;;;28.40;4.47;;;9.10;99.90;;;;;;5031976;28;20381;-51
2023/12/10 03:23:28;;;;;;;31.02;3.92;;;9.10;99.90;;;;;;5031137;28;20049;-49
2023/12/10 03:25:54;;;;;;;28.83;4.30;;;9.10;99.90;;;;;;5029345;28;20041;-51
2023/12/10 03:28:19;;;;;;;36.33;4.80;;;8.90;99.90;;;;;;5031544;28;20065;-51
2023/12/10 03:30:45;;;;;;;31.90;4.38;;;9.00;99.90;;;;;;5031070;28;20405;-51
2023/12/10 03:33:11;;;;;;;33.60;4.13;;;9.20;99.90;;;;;;5031349;28;20124;-52
2023/12/10 03:35:37;;;;;;;35.45;5.60;;;8.50;99.90;;;;;;5031162;28;20042;-51
2023/12/10 03:38:02;;;;;;;33.60;3.92;;;8.60;99.90;;;;;;5031482;28;20041;-52
2023/12/10 03:40:28;;;;;;;36.30;4.38;;;9.10;99.90;;;;;;5031420;28;20039;-50
2023/12/10 03:42:54;;;;;;;28.33;4.70;;;9.20;99.90;;;;;;5030433;28;20037;-52
2023/12/10 03:45:19;;;;;;;26.58;3.85;;;9.20;99.90;;;;;;5030873;28;20073;-51
2023/12/10 03:47:46;;;;;;;41.72;4.72;;;8.80;99.90;;;;;;5031312;28;21049;-52
2023/12/10 03:50:16;;;;;;;36.03;4.45;;;9.20;99.90;;;;;;5031375;28;20030;-51
2023/12/10 03:52:42;;;;;;;31.58;4.07;;;9.20;99.90;;;;;;5030865;28;20080;-52
2023/12/10 03:55:08;;;;;;;30.92;3.42;;;9.20;99.90;;;;;;5030817;28;20445;-52
2023/12/10 03:57:34;;;;;;;29.58;4.28;;;9.20;99.90;;;;;;5029469;28;20080;-50
2023/12/10 04:00:01;;;;;;;43.42;4.93;;;8.50;99.90;;;;;;5030085;28;20124;-51
2023/12/10 04:02:26;;;;;;;34.10;5.38;;;9.20;99.90;;;;;;5029031;28;20045;-51
2023/12/10 04:04:52;;;;;;;34.40;4.40;;;9.30;99.90;;;;;;5028726;28;20409;-51
2023/12/10 04:07:18;;;;;;;31.65;3.60;;;9.20;99.90;;;;;;5012986;28;20072;-54
2023/12/10 04:09:43;;;;;;;24.27;4.20;;;8.60;99.90;;;;;;5031084;28;20526;-50
2023/12/10 04:12:09;;;;;;;30.85;3.88;;;9.00;99.90;;;;;;5030948;28;20072;-50
2023/12/10 04:14:35;;;;;;;32.20;3.88;;;9.30;99.90;;;;;;5030123;28;20504;-52
2023/12/10 04:17:01;;;;;;;31.90;3.95;;;8.90;99.90;;;;;;5029726;28;20061;-48
2023/12/10 04:19:26;;;;;;;31.52;5.00;;;9.30;99.90;;;;;;5030858;28;20377;-50
2023/12/10 04:21:52;;;;;;;36.35;3.88;;;8.90;99.90;;;;;;5030488;28;20389;-50
2023/12/10 04:24:17;;;;;;;38.75;4.38;;;9.20;99.90;;;;;;5030961;28;20050;-51
2023/12/10 04:26:43;;;;;;;33.33;4.15;;;9.40;99.90;;;;;;5028700;28;20045;-55
2023/12/10 04:29:09;;;;;;;37.55;4.93;;;9.40;99.90;;;;;;5030848;28;20116;-48
2023/12/10 04:31:36;;;;;;;35.28;4.68;;;9.30;99.90;;;;;;5030452;28;20042;-49
2023/12/10 04:34:02;;;;;;;37.15;5.20;;;8.70;99.90;;;;;;5030342;28;20041;-52
2023/12/10 04:36:27;;;;;;;46.95;5.07;;;8.70;99.90;;;;;;5030774;28;20048;-51
2023/12/10 04:38:53;;;;;;;31.17;4.65;;;8.60;99.90;;;;;;5029274;28;20081;-53
2023/12/10 04:41:19;;;;;;;25.33;4.80;;;8.80;99.90;;;;;;5028774;28;20396;-54
2023/12/10 04:43:44;;;;;;;40.25;6.53;;;9.50;99.90;;;;;;5027081;28;20034;-53
2023/12/10 04:46:10;;;;;;;34.50;4.60;;;9.30;99.90;;;;;;5029292;28;20496;-51
2023/12/10 04:48:36;;;;;;;49.42;5.53;;;8.80;99.90;;;;;;5030775;28;20055;-54
2023/12/10 04:51:01;;;;;;;34.50;4.93;;;9.40;99.90;;;;;;5030505;28;20087;-54
2023/12/10 04:53:27;;;;;;;35.25;4.75;;;9.50;99.90;;;;;;5030757;28;20045;-47
2023/12/10 04:55:53;;;;;;;48.55;5.32;;;8.70;99.90;;;;;;5030119;28;20038;-49
2023/12/10 04:58:19;;;;;;;42.60;5.65;;;9.30;99.90;;;;;;5027990;28;20092;-53
2023/12/10 05:00:45;;;;;;;39.25;5.65;;;9.40;99.90;;;;;;5012502;28;20046;-53
2023/12/10 05:03:11;;;;;;;41.78;5.75;;;9.40;99.90;;;;;;5029148;28;20095;-51
2023/12/10 05:05:36;;;;;;;43.28;4.90;;;8.60;99.90;;;;;;5030235;28;20041;-53
2023/12/10 05:08:02;;;;;;;44.85;4.95;;;8.80;99.90;;;;;;5028999;28;20040;-54
2023/12/10 05:10:28;;;;;;;41.63;5.82;;;8.70;99.90;;;;;;5028747;28;20042;-55
2023/12/10 05:12:54;;;;;;;54.38;6.78;;;9.50;99.90;;;;;;5031389;28;20362;-53
2023/12/10 05:15:19;;;;;;;40.75;5.50;;;8.70;99.90;;;;;;5032535;28;20095;-53
2023/12/10 05:17:45;;;;;;;37.80;5.43;;;8.70;99.90;;;;;;5033650;28;20166;-53
2023/12/10 05:20:11;;;;;;;29.27;4.60;;;8.60;99.90;;;;;;5033736;28;20409;-53
2023/12/10 05:22:37;;;;;;;43.75;5.75;;;9.40;99.90;;;;;;5032455;28;20046;-51
2023/12/10 05:25:03;;;;;;;44.40;5.10;;;8.60;99.90;;;;;;5033025;28;20068;-49
2023/12/10 05:27:32;;;;;;;46.53;5.97;;;8.70;99.90;;;;;;5033792;28;20501;-52
2023/12/10 05:29:59;;;;;;;33.50;5.40;;;9.10;99.90;;;;;;5033250;28;20133;-56
2023/12/10 05:32:25;;;;;;;32.38;5.25;;;8.90;99.90;;;;;;5033617;28;20033;-52
2023/12/10 05:34:51;;;;;;;56.60;6.72;;;9.10;99.90;;;;;;5032162;28;20044;-55
2023/12/10 05:37:17;;;;;;;37.55;6.13;;;8.60;99.90;;;;;;5033775;28;20385;-53
2023/12/10 05:39:43;;;;;;;44.60;5.22;;;8.70;99.90;;;;;;5033317;28;20041;-54
2023/12/10 05:42:09;;;;;;;33.92;4.90;;;8.60;99.90;;;;;;5033573;28;20030;-56
2023/12/10 05:44:35;;;;;;;45.42;6.22;;;9.40;99.90;;;;;;5033117;28;20049;-50
2023/12/10 05:47:01;;;;;;;42.90;5.30;;;9.10;99.90;;;;;;5033552;28;20049;-49
2023/12/10 05:49:26;;;;;;;41.60;5.40;;;9.40;99.90;;;;;;5033366;28;20043;-53
2023/12/10 05:51:52;;;;;;;35.05;5.07;;;9.40;99.90;;;;;;5033043;28;20037;-52
2023/12/10 05:54:18;;;;;;;47.33;5.18;;;8.60;99.90;;;;;;5033045;28;20063;-56
2023/12/10 05:56:44;;;;;;;45.50;6.00;;;9.40;99.90;;;;;;5031524;28;20053;-55
2023/12/10 05:59:10;;;;;;;37.03;5.65;;;9.10;99.90;;;;;;5032057;28;20081;-57
2023/12/10 06:01:35;;;;;;;33.30;5.28;;;9.40;99.90;;;;;;5032900;28;20076;-56
2023/12/10 06:04:01;;;;;;;39.78;8.65;;;8.70;99.90;;;;;;5033498;28;20389;-55
2023/12/10 06:06:27;;;;;;;37.35;5.03;;;9.30;99.90;;;;;;5033015;28;20037;-56
2023/12/10 06:08:52;;;;;;;42.78;5.13;;;8.90;99.90;;;;;;5032574;28;20044;-53
2023/12/10 06:11:18;;;;;;;32.13;5.00;;;9.40;99.90;;;;;;5031469;28;20049;-53
2023/12/10 06:13:44;;;;;;;38.05;4.82;;;8.90;99.90;;;;;;5032407;28;20108;-51
2023/12/10 06:16:09;;;;;;;35.45;5.18;;;9.00;99.90;;;;;;5032746;28;20049;-51
2023/12/10 06:18:35;;;;;;;26.45;4.47;;;9.40;99.90;;;;;;5032955;28;20052;-51
2023/12/10 06:21:01;;;;;;;24.25;3.45;;;8.70;99.90;;;;;;5032684;28;20040;-50
2023/12/10 06:23:26;;;;;;;33.03;4.40;;;9.20;99.90;;;;;;5032293;28;20576;-53
2023/12/10 06:25:52;;;;;;;34.03;4.97;;;9.10;99.90;;;;;;5032153;28;20038;-54
2023/12/10 06:28:18;;;;;;;30.08;3.88;;;9.40;99.90;;;;;;5032756;28;20045;-51
2023/12/10 06:30:43;;;;;;;25.95;3.67;;;8.80;99.90;;;;;;5032667;28;20542;-54
2023/12/10 06:33:09;;;;;;;27.15;4.03;;;8.90;99.90;;;;;;5032339;28;20045;-52
2023/12/10 06:35:35;;;;;;;22.15;4.22;;;9.10;99.90;;;;;;5032493;28;20061;-50
2023/12/10 06:38:00;;;;;;;25.02;3.75;;;8.90;99.90;;;;;;5032063;28;20048;-52
2023/12/10 06:40:26;;;;;;;28.10;3.92;;;9.30;99.90;;;;;;5032477;28;20052;-51
2023/12/10 06:42:52;;;;;;;31.40;4.13;;;9.60;99.90;;;;;;5031790;28;20040;-50
2023/12/10 06:45:17;;;;;;;29.75;4.30;;;8.90;99.90;;;;;;5032442;28;20385;-48
2023/12/10 06:47:43;;;;;;;30.25;3.70;;;8.90;99.90;;;;;;5032149;28;20030;-52
2023/12/10 06:50:09;;;;;;;32.83;4.45;;;9.00;99.90;;;;;;5032437;28;20045;-52
2023/12/10 06:52:34;;;;;;;27.25;3.78;;;9.60;99.90;;;;;;5031692;28;20445;-50
2023/12/10 06:55:00;;;;;;;23.60;3.22;;;9.30;99.90;;;;;;5032040;28;20261;-52
2023/12/10 06:57:26;;;;;;;23.50;3.60;;;8.90;99.90;;;;;;5029581;28;20046;-52
2023/12/10 06:59:52;;;;;;;28.23;3.63;;;9.00;99.90;;;;;;5031940;28;20064;-51
2023/12/10 07:02:18;;;;;;;34.13;4.05;;;9.30;99.90;;;;;;5032271;28;20052;-50
2023/12/10 07:04:44;;;;;;;29.17;3.35;;;8.80;99.90;;;;;;5031913;28;20037;-53
2023/12/10 07:07:10;;;;;;;31.02;4.38;;;8.80;99.90;;;;;;5031936;28;20124;-51
2023/12/10 07:09:35;;;;;;;24.75;3.53;;;8.90;99.90;;;;;;5031842;28;20036;-52
2023/12/10 07:12:02;;;;;;;21.45;3.38;;;9.20;99.90;;;;;;5031903;28;20116;-55
2023/12/10 07:14:28;;;;;;;16.52;3.35;;;9.50;99.90;;;;;;5031311;28;20481;-53
2023/12/10 07:16:54;;;;;;;14.82;2.17;;;8.80;99.90;;;;;;5030909;28;20046;-52
2023/12/10 07:19:19;;;;;;;16.20;2.72;;;9.20;99.90;;;;;;5029278;28;20053;-52
2023/12/10 07:21:45;;;;;;;18.02;2.90;;;8.80;99.90;;;;;;5029839;28;20362;-50
2023/12/10 07:24:11;;;;;;;20.73;2.65;;;9.30;99.90;;;;;;5030342;28;20095;-53
2023/12/10 07:26:36;;;;;;;21.67;3.05;;;9.00;99.90;;;;;;5031373;28;20512;-51
2023/12/10 07:29:02;;;;;;;31.23;3.17;;;9.10;99.90;;;;;;5030348;28;20112;-54
2023/12/10 07:31:30;;;;;;;24.58;3.30;;;8.70;99.90;;;;;;5030671;28;20485;-54
2023/12/10 07:33:55;;;;;;;31.50;3.55;;;9.10;99.90;;;;;;5031409;28;20124;-54
2023/12/10 07:36:21;;;;;;;39.95;4.70;;;8.90;99.90;;;;;;5028043;28;20125;-55
2023/12/10 07:38:47;;;;;;;32.40;5.22;;;9.20;99.90;;;;;;5031347;28;20038;-51
2023/12/10 07:41:13;;;;;;;26.73;3.83;;;9.40;99.90;;;;;;5031037;28;20041;-53
2023/12/10 07:43:39;;;;;;;39.50;5.10;;;9.30;99.90;;;;;;5030827;28;20122;-51
2023/12/10 07:46:05;;;;;;;44.92;5.75;;;9.40;99.90;;;;;;5031057;28;20040;-51
2023/12/10 07:48:30;;;;;;;40.20;5.03;;;8.60;99.90;;;;;;5030858;28;20037;-54
2023/12/10 07:50:56;;;;;;;32.13;5.22;;;9.00;99.90;;;;;;5029848;28;20130;-55
2023/12/10 07:53:22;;;;;;;39.92;5.32;;;8.60;99.90;;;;;;5029394;28;20046;-52
2023/12/10 07:55:47;;;;;;;42.95;5.88;;;8.90;99.90;;;;;;5031218;28;20051;-52
2023/12/10 07:58:13;;;;;;;40.15;5.28;;;9.50;99.90;;;;;;5029839;28;20393;-52
2023/12/10 08:00:39;;;;;;;44.25;9.95;;;9.40;99.90;;;;;;5031087;28;20037;-50
2023/12/10 08:03:05;;;;;;;51.08;6.55;;;9.20;99.90;;;;;;5030646;28;20520;-53
2023/12/10 08:05:31;;;;;;;39.50;6.68;;;9.50;99.90;;;;;;5029244;28;20112;-51
2023/12/10 08:08:02;;;;;;;36.00;5.70;;;8.70;99.90;;;;;;5029009;28;21076;-53
2023/12/10 08:10:28;;;;;;;42.45;5.65;;;9.40;99.90;;;;;;5030278;28;20049;-53
2023/12/10 08:12:54;;;;;;;42.50;5.13;;;8.60;99.90;;;;;;5029933;28;20377;-52
2023/12/10 08:15:21;;;;;;;51.60;6.03;;;8.60;99.90;;;;;;5030882;28;20052;-52
2023/12/10 08:17:46;;;;;;;34.40;5.30;;;8.50;99.90;;;;;;5028368;28;20151;-52
2023/12/10 08:20:12;;;;;;;39.03;5.90;;;9.20;99.90;;;;;;5030243;28;20120;-49
2023/12/10 08:22:38;;;;;;;39.85;5.28;;;8.50;99.90;;;;;;5030399;28;20048;-50
2023/12/10 08:25:05;;;;;;;39.30;5.55;;;9.10;99.90;;;;;;5030625;28;20033;-48
2023/12/10 08:27:31;;;;;;;36.63;5.35;;;9.10;99.90;;;;;;5024360;28;20044;-51
2023/12/10 08:29:57;;;;;;;44.05;5.85;;;8.50;99.90;;;;;;5021122;28;20572;-49
2023/12/10 08:32:23;;;;;;;43.45;6.20;;;8.90;99.90;;;;;;5004629;28;20120;-49
2023/12/10 08:34:49;;;;;;;43.70;4.43;;;8.60;99.90;;;;;;5021637;28;20060;-51
2023/12/10 08:37:14;;;;;;;33.97;4.47;;;8.40;99.90;;;;;;5021152;28;20041;-49
2023/12/10 08:39:42;;;;;;;42.10;5.00;;;8.60;99.90;;;;;;5020368;28;20041;-53
2023/12/10 08:42:08;;;;;;;38.88;5.18;;;8.70;99.90;;;;;;5020383;28;20091;-51
2023/12/10 08:44:34;;;;;;;43.83;5.25;;;8.50;99.90;;;;;;5021662;28;20037;-54
2023/12/10 08:46:59;;;;;;;34.30;4.80;;;9.20;99.90;;;;;;5022597;28;20124;-51
2023/12/10 08:49:25;;;;;;;36.47;4.63;;;8.80;99.90;;;;;;5025966;28;20060;-50
2023/12/10 08:51:51;;;;;;;35.65;5.57;;;9.30;99.90;;;;;;5024274;28;20124;-52
2023/12/10 08:54:17;;;;;;;37.70;5.07;;;9.20;99.90;;;;;;5025483;28;20103;-55
2023/12/10 08:56:42;;;;;;;29.38;4.93;;;9.30;99.90;;;;;;5025819;28;20037;-51
2023/12/10 08:59:09;;;;;;;34.08;4.28;;;9.30;99.90;;;;;;5026016;28;20041;-50
2023/12/10 09:01:35;;;;;;;43.10;5.05;;;8.80;99.90;;;;;;5024307;28;20548;-51
2023/12/10 09:04:01;;;;;;;44.65;6.03;;;9.30;99.90;;;;;;5025013;28;20107;-49
2023/12/10 09:06:27;;;;;;;39.25;5.15;;;9.00;99.90;;;;;;5023184;28;20033;-52
2023/12/10 09:08:52;;;;;;;33.90;5.50;;;8.90;99.90;;;;;;5022211;28;20045;-50
2023/12/10 09:11:18;;;;;;;30.35;3.92;;;8.90;99.90;;;;;;5025966;28;20029;-52
2023/12/10 09:13:44;;;;;;;35.65;4.82;;;9.20;99.90;;;;;;5016353;28;20057;-50
2023/12/10 09:16:10;;;;;;;34.40;4.68;;;9.10;99.90;;;;;;5023866;28;20053;-51
2023/12/10 09:18:36;;;;;;;40.47;6.78;;;9.00;99.90;;;;;;5024311;28;20040;-51
2023/12/10 09:21:01;;;;;;;55.15;5.97;;;9.20;99.90;;;;;;5022630;28;20051;-51
2023/12/10 09:23:27;;;;;;;39.38;5.20;;;8.60;99.90;;;;;;5023983;28;20052;-52
2023/12/10 09:25:53;;;;;;;41.50;5.80;;;9.40;99.90;;;;;;5023768;28;20037;-51
2023/12/10 09:28:19;;;;;;;32.60;5.40;;;9.10;99.90;;;;;;5023359;28;20547;-51
2023/12/10 09:30:44;;;;;;;36.75;4.40;;;9.30;99.90;;;;;;5024284;28;20521;-53
2023/12/10 09:33:10;;;;;;;29.00;4.03;;;8.70;99.90;;;;;;5024107;28;20049;-51
2023/12/10 09:35:36;;;;;;;40.35;4.43;;;9.10;99.90;;;;;;5024455;28;20054;-48
2023/12/10 09:38:05;;;;;;;38.90;4.28;;;9.40;99.90;;;;;;5021223;28;20034;-51
2023/12/10 09:40:31;;;;;;;32.28;4.55;;;9.50;99.90;;;;;;5025187;28;20044;-52
2023/12/10 09:42:58;;;;;;;30.20;4.93;;;9.00;99.90;;;;;;5023359;28;20038;-51
2023/12/10 09:45:23;;;;;;;30.85;4.63;;;9.90;99.90;;;;;;5024739;28;20041;-51
2023/12/10 09:47:50;;;;;;;36.50;5.43;;;9.40;99.90;;;;;;5024930;28;20036;-50
2023/12/10 09:50:18;;;;;;;33.75;5.05;;;9.30;99.90;;;;;;5022347;28;20049;-51
2023/12/10 09:52:44;;;;;;;38.67;4.97;;;9.50;99.90;;;;;;5022613;28;20124;-49
2023/12/10 09:55:09;;;;;;;31.00;4.47;;;9.60;99.90;;;;;;5023993;28;20112;-49
2023/12/10 09:57:35;;;;;;;43.15;5.68;;;9.50;99.90;;;;;;5026125;28;20477;-52
2023/12/10 10:00:01;;;;;;;26.70;4.97;;;9.30;99.90;;;;;;5028988;28;20102;-50
2023/12/10 10:02:31;;;;;;;31.90;4.78;;;9.20;99.90;;;;;;5030726;28;20037;-47
2023/12/10 10:04:57;;;;;;;28.00;5.03;;;9.20;99.90;;;;;;5032899;28;20037;-50
2023/12/10 10:07:23;;;;;;;38.75;4.93;;;9.40;99.90;;;;;;5033409;28;20037;-51
2023/12/10 10:09:48;;;;;;;25.38;4.05;;;9.50;99.90;;;;;;5032939;28;20067;-53
2023/12/10 10:12:14;;;;;;;39.38;5.35;;;9.70;99.90;;;;;;5031537;28;20116;-52
2023/12/10 10:15:07;;;;;;;34.45;4.97;;;9.60;99.90;;;;;;5032380;28;20118;-51
2023/12/10 10:17:36;;;;;;;30.83;4.32;;;9.30;99.90;;;;;;5031072;28;20087;-48
2023/12/10 10:20:06;;;;;;;32.60;3.92;;;9.40;99.90;;;;;;5032486;28;20037;-52
2023/12/10 10:22:32;;;;;;;33.33;4.25;;;9.60;99.90;;;;;;5032698;28;20045;-51
2023/12/10 10:24:58;;;;;;;29.52;4.90;;;9.30;99.90;;;;;;5032754;28;20076;-49
2023/12/10 10:27:24;;;;;;;33.22;4.55;;;9.30;99.90;;;;;;5032555;28;20618;-48
2023/12/10 10:29:53;;;;;;;30.50;4.05;;;9.50;99.90;;;;;;5032724;28;20377;-53
2023/12/10 10:32:22;;;;;;;20.45;3.80;;;9.40;99.90;;;;;;5032798;28;20515;-51
2023/12/10 10:34:49;;;;;;;26.90;4.10;;;9.60;99.90;;;;;;5032372;28;20501;-52
2023/12/10 10:37:16;;;;;;;33.60;4.72;;;9.70;99.90;;;;;;5032686;28;20392;-51
2023/12/10 10:39:48;;;;;;;31.67;4.47;;;9.70;99.90;;;;;;5032470;28;20053;-51
2023/12/10 10:42:13;;;;;;;24.30;4.32;;;9.70;99.90;;;;;;5032625;28;20481;-51
2023/12/10 10:44:41;;;;;;;29.10;3.60;;;9.70;99.90;;;;;;5031909;28;20069;-48
2023/12/10 10:47:07;;;;;;;36.05;4.47;;;9.60;99.90;;;;;;5032553;28;20037;-52
2023/12/10 10:49:51;;;;;;;34.28;4.65;;;9.70;99.90;;;;;;5032313;28;20906;-49
2023/12/10 10:52:19;;;;;;;25.97;3.23;;;9.50;99.90;;;;;;5030593;28;20486;-52
2023/12/10 10:54:46;;;;;;;20.00;3.25;;;9.60;99.90;;;;;;5032188;28;20127;-49
2023/12/10 10:57:12;;;;;;;30.27;4.03;;;9.70;99.90;;;;;;5032314;28;20639;-51
2023/12/10 10:59:38;;;;;;;40.38;5.18;;;9.60;99.90;;;;;;5031869;28;20120;-48
2023/12/10 11:02:11;;;;;;;26.33;4.57;;;9.70;99.90;;;;;;5032036;28;20138;-51
2023/12/10 11:04:41;;;;;;;26.63;3.53;;;9.70;99.90;;;;;;5028990;28;20049;-48
2023/12/10 11:07:07;;;;;;;24.58;3.72;;;9.60;99.90;;;;;;5028807;28;20049;-53
2023/12/10 11:09:54;;;;;;;34.63;5.43;;;9.60;99.90;;;;;;5025490;28;20050;-51
2023/12/10 11:12:45;;;;;;;26.92;4.80;;;9.50;99.90;;;;;;5024150;28;20051;-51
2023/12/10 11:15:17;;;;;;;26.50;4.10;;;9.40;99.90;;;;;;5026014;28;20065;-53
2023/12/10 11:17:58;;;;;;;30.65;3.85;;;9.50;99.90;;;;;;5029151;28;20057;-52
2023/12/10 11:20:41;;;;;;;33.03;4.65;;;9.60;99.90;;;;;;5031518;28;20041;-50
2023/12/10 11:23:09;;;;;;;27.60;4.68;;;9.40;99.90;;;;;;5030126;28;20488;-49
2023/12/10 11:25:35;;;;;;;28.63;3.08;;;9.30;99.90;;;;;;5023619;28;20037;-52
2023/12/10 11:28:21;;;;;;;31.02;3.97;;;9.60;99.90;;;;;;5023187;28;20096;-50
2023/12/10 11:30:47;;;;;;;26.35;4.15;;;9.60;99.90;;;;;;5027174;28;20030;-50
2023/12/10 11:33:14;;;;;;;30.05;4.38;;;9.70;99.90;;;;;;5029022;28;20043;-48
2023/12/10 11:35:40;;;;;;;28.77;3.67;;;9.60;99.90;;;;;;5023095;28;20045;-48
2023/12/10 11:38:07;;;;;;;31.65;4.07;;;9.70;99.90;;;;;;5025283;28;20099;-48
2023/12/10 11:40:33;;;;;;;27.27;4.20;;;9.40;99.90;;;;;;5021835;28;20394;-51
2023/12/10 11:43:04;;;;;;;28.30;3.95;;;9.60;99.90;;;;;;5023637;28;20064;-53
2023/12/10 11:45:30;;;;;;;27.08;4.40;;;9.50;99.90;;;;;;5018805;28;20542;-52
2023/12/10 11:47:56;;;;;;;28.88;3.53;;;9.50;99.90;;;;;;5021181;28;20033;-51
2023/12/10 11:50:22;;;;;;;23.50;3.60;;;9.60;99.90;;;;;;5025849;28;20041;-52
2023/12/10 11:52:48;;;;;;;25.88;3.42;;;9.60;99.90;;;;;;5021561;28;20037;-51
2023/12/10 11:55:14;;;;;;;23.20;3.65;;;9.50;99.90;;;;;;5023302;28;20037;-52
2023/12/10 11:57:43;;;;;;;20.08;3.78;;;9.70;99.90;;;;;;5022893;28;20516;-51
2023/12/10 12:00:13;;;;;;;25.63;3.33;;;9.60;99.90;;;;;;5022064;28;20038;-52
2023/12/10 12:02:46;;;;;;;25.42;3.92;;;9.50;99.90;;;;;;5023479;28;20385;-49
2023/12/10 12:05:13;;;;;;;28.45;3.88;;;9.70;99.90;;;;;;5018158;28;20030;-52
2023/12/10 12:07:40;;;;;;;19.63;3.53;;;9.50;99.90;;;;;;5022787;28;20033;-51
2023/12/10 12:10:07;;;;;;;21.80;4.30;;;9.70;99.90;;;;;;5022177;28;21801;-51
2023/12/10 12:12:38;;;;;;;23.55;2.92;;;9.70;99.90;;;;;;5020088;28;20414;-50
2023/12/10 12:15:04;;;;;;;20.38;3.17;;;9.50;99.90;;;;;;5019863;28;20026;-53
2023/12/10 12:17:30;;;;;;;16.80;3.10;;;9.70;99.90;;;;;;5024249;28;20049;-52
2023/12/10 12:20:11;;;;;;;24.20;3.05;;;9.70;99.90;;;;;;5020258;28;20049;-54
2023/12/10 12:22:36;;;;;;;18.90;2.85;;;9.60;99.90;;;;;;5020784;28;20041;-51
2023/12/10 12:25:03;;;;;;;15.52;2.67;;;9.60;99.90;;;;;;5024207;28;20095;-52
2023/12/10 12:27:28;;;;;;;24.95;3.22;;;9.70;99.90;;;;;;5020545;28;20046;-48
2023/12/10 12:29:54;;;;;;;24.50;3.53;;;9.60;99.90;;;;;;5021626;28;20042;-47
2023/12/10 12:32:20;;;;;;;22.02;3.13;;;9.50;99.90;;;;;;5023983;28;20038;-51
2023/12/10 12:34:45;;;;;;;22.63;3.97;;;9.50;99.90;;;;;;5022524;28;20046;-48
2023/12/10 12:37:11;;;;;;;21.02;3.33;;;9.70;99.90;;;;;;5021139;28;20034;-51
2023/12/10 12:39:37;;;;;;;20.27;3.17;;;9.70;99.90;;;;;;5021343;28;20401;-49
2023/12/10 12:42:03;;;;;;;16.10;3.08;;;9.50;99.90;;;;;;5023503;28;20048;-51
2023/12/10 12:44:28;;;;;;;18.38;4.32;;;9.70;99.90;;;;;;5023591;28;20045;-50